createdAt,value
2023-02-02T00:02:54.933Z,3.90
2023-02-02T00:05:57.703Z,2.42
2023-02-02T00:09:03.017Z,2.00
2023-02-02T00:12:04.759Z,2.13
2023-02-02T00:15:07.103Z,2.35
2023-02-02T00:18:08.751Z,1.67
2023-02-02T00:21:10.375Z,2.00
2023-02-02T00:24:14.149Z,1.70
2023-02-02T00:27:15.971Z,1.95
2023-02-02T00:30:17.756Z,2.10
2023-02-02T00:33:19.443Z,2.78
2023-02-02T00:36:21.925Z,1.92
2023-02-02T00:39:27.953Z,2.05
2023-02-02T00:42:29.929Z,3.53
2023-02-02T00:45:31.866Z,2.33
2023-02-02T00:48:33.676Z,1.80
2023-02-02T00:51:37.144Z,1.85
2023-02-02T00:54:38.855Z,2.03
2023-02-02T00:57:41.372Z,3.10
2023-02-02T01:00:43.127Z,2.40
2023-02-02T01:03:45.184Z,1.92
2023-02-02T01:06:46.812Z,2.10
2023-02-02T01:09:49.363Z,1.83
2023-02-02T01:12:51.266Z,2.40
2023-02-02T01:16:00.995Z,2.70
2023-02-02T01:19:03.148Z,1.88
2023-02-02T01:22:04.885Z,3.40
2023-02-02T01:25:06.791Z,2.28
2023-02-02T01:28:08.508Z,1.95
2023-02-02T01:31:16.107Z,2.35
2023-02-02T01:34:17.780Z,2.30
2023-02-02T01:37:19.536Z,2.17
2023-02-02T01:40:21.255Z,1.85
2023-02-02T01:43:45.625Z,2.70
2023-02-02T01:46:47.360Z,2.05
2023-02-02T01:49:49.726Z,2.72
2023-02-02T01:52:54.082Z,2.25
2023-02-02T01:55:56.222Z,2.10
2023-02-02T01:59:00.715Z,2.75
2023-02-02T02:02:03.274Z,2.67
2023-02-02T02:05:07.696Z,2.40
2023-02-02T02:08:15.304Z,2.33
2023-02-02T02:11:17.112Z,2.10
2023-02-02T02:14:37.545Z,1.50
2023-02-02T02:18:21.374Z,2.40
2023-02-02T02:21:58.009Z,2.17
2023-02-02T02:25:46.897Z,1.95
2023-02-02T02:28:52.210Z,1.95
2023-02-02T02:32:06.287Z,2.15
2023-02-02T02:35:31.199Z,2.17
2023-02-02T02:38:41.128Z,2.25
2023-02-02T02:41:50.148Z,1.88
2023-02-02T02:44:56.549Z,2.22
2023-02-02T02:47:58.378Z,1.63
2023-02-02T02:51:41.104Z,2.20
2023-02-02T02:54:53.825Z,1.92
2023-02-02T02:58:03.095Z,2.17
2023-02-02T03:01:59.688Z,2.53
2023-02-02T03:05:32.559Z,1.98
2023-02-02T03:08:37.974Z,2.38
2023-02-02T03:11:40.987Z,2.88
2023-02-02T03:14:42.872Z,1.65
2023-02-02T03:17:47.591Z,1.55
2023-02-02T03:20:49.250Z,2.17
2023-02-02T03:23:51.170Z,1.95
2023-02-02T03:26:53.284Z,2.05
2023-02-02T03:29:55.259Z,2.30
2023-02-02T03:32:57.035Z,2.42
2023-02-02T03:35:58.960Z,2.35
2023-02-02T03:39:00.563Z,1.80
2023-02-02T03:42:02.195Z,2.03
2023-02-02T03:45:04.625Z,2.20
2023-02-02T03:48:06.840Z,1.98
2023-02-02T03:51:11.739Z,2.40
2023-02-02T03:54:14.802Z,2.72
2023-02-02T03:57:16.531Z,2.97
2023-02-02T04:00:18.732Z,1.98
2023-02-02T04:03:20.544Z,2.60
2023-02-02T04:06:22.949Z,2.25
2023-02-02T04:09:25.403Z,2.28
2023-02-02T04:12:27.122Z,1.95
2023-02-02T04:15:28.849Z,2.05
2023-02-02T04:18:30.472Z,2.97
2023-02-02T04:21:32.506Z,2.50
2023-02-02T04:24:35.592Z,2.03
2023-02-02T04:27:38.824Z,2.00
2023-02-02T04:30:40.514Z,2.25
2023-02-02T04:33:42.073Z,3.47
2023-02-02T04:36:44.657Z,2.38
2023-02-02T04:39:46.320Z,2.40
2023-02-02T04:42:48.045Z,2.45
2023-02-02T04:45:55.316Z,2.13
2023-02-02T04:48:56.888Z,2.50
2023-02-02T04:51:58.485Z,2.42
2023-02-02T04:55:00.397Z,2.00
2023-02-02T04:58:02.056Z,3.17
2023-02-02T05:01:16.519Z,2.53
2023-02-02T05:04:18.306Z,2.40
2023-02-02T05:07:21.076Z,2.38
2023-02-02T05:10:22.702Z,2.47
2023-02-02T05:13:24.498Z,2.35
2023-02-02T05:16:28.783Z,3.33
2023-02-02T05:19:30.800Z,2.13
2023-02-02T05:22:32.530Z,2.60
2023-02-02T05:25:34.271Z,3.22
2023-02-02T05:28:36.100Z,2.03
2023-02-02T05:31:38.224Z,2.33
2023-02-02T05:34:40.083Z,2.88
2023-02-02T05:37:47.950Z,2.28
2023-02-02T05:40:49.822Z,2.55
2023-02-02T05:43:51.715Z,2.35
2023-02-02T05:46:53.305Z,3.03
2023-02-02T05:49:56.759Z,1.80
2023-02-02T05:52:59.774Z,2.75
2023-02-02T05:56:01.450Z,1.88
2023-02-02T05:59:07.549Z,1.80
2023-02-02T06:02:09.207Z,2.35
2023-02-02T06:05:11.080Z,2.45
2023-02-02T06:08:12.812Z,2.03
2023-02-02T06:11:16.938Z,1.98
2023-02-02T06:14:18.623Z,2.30
2023-02-02T06:17:20.224Z,2.45
2023-02-02T06:20:24.970Z,2.17
2023-02-02T06:23:26.874Z,2.15
2023-02-02T06:26:29.351Z,2.78
2023-02-02T06:29:30.961Z,2.95
2023-02-02T06:32:32.639Z,2.60
2023-02-02T06:35:34.965Z,2.80
2023-02-02T06:38:36.847Z,2.05
2023-02-02T06:41:38.827Z,2.53
2023-02-02T06:44:40.707Z,2.83
2023-02-02T06:47:42.449Z,2.10
2023-02-02T06:50:44.226Z,3.33
2023-02-02T06:53:49.522Z,2.60
2023-02-02T06:56:51.513Z,2.78
2023-02-02T06:59:53.085Z,2.20
2023-02-02T07:02:55.069Z,2.38
2023-02-02T07:05:56.798Z,2.40
2023-02-02T07:09:03.082Z,2.70
2023-02-02T07:12:05.358Z,2.55
2023-02-02T07:15:07.797Z,2.72
2023-02-02T07:18:09.657Z,2.47
2023-02-02T07:21:28.297Z,3.05
2023-02-02T07:24:30.298Z,2.13
2023-02-02T07:27:33.292Z,2.75
2023-02-02T07:30:35.166Z,2.70
2023-02-02T07:33:40.223Z,3.00
2023-02-02T07:36:41.935Z,2.33
2023-02-02T07:39:44.010Z,2.83
2023-02-02T07:42:52.158Z,3.22
2023-02-02T07:45:54.212Z,2.75
2023-02-02T07:48:56.515Z,2.70
2023-02-02T07:51:58.428Z,2.63
2023-02-02T07:55:14.009Z,2.35
2023-02-02T07:58:16.726Z,3.72
2023-02-02T08:01:20.545Z,2.08
2023-02-02T08:04:22.408Z,3.00
2023-02-02T08:07:24.682Z,3.33
2023-02-02T08:10:26.342Z,2.50
2023-02-02T08:13:28.254Z,2.20
2023-02-02T08:16:32.283Z,1.98
2023-02-02T08:19:34.077Z,2.17
2023-02-02T08:22:36.018Z,2.97
2023-02-02T08:25:37.571Z,1.55
2023-02-02T08:28:41.556Z,2.33
2023-02-02T08:31:44.888Z,2.13
2023-02-02T08:34:49.127Z,2.08
2023-02-02T08:37:50.838Z,1.75
2023-02-02T08:40:52.701Z,1.42
2023-02-02T08:43:55.807Z,2.47
2023-02-02T08:46:57.802Z,1.50
2023-02-02T08:49:59.655Z,2.05
2023-02-02T08:53:01.386Z,1.52
2023-02-02T08:56:06.672Z,1.15
2023-02-02T08:59:08.414Z,3.17
2023-02-02T09:02:13.934Z,1.10
2023-02-02T09:05:15.822Z,1.50
2023-02-02T09:08:17.534Z,1.15
2023-02-02T09:11:20.770Z,1.67
2023-02-02T09:14:22.490Z,1.42
2023-02-02T09:17:24.400Z,1.50
2023-02-02T09:20:26.246Z,1.40
2023-02-02T09:23:36.250Z,2.95
2023-02-02T09:26:40.482Z,1.10
2023-02-02T09:29:42.333Z,1.33
2023-02-02T09:32:45.658Z,1.38
2023-02-02T09:35:47.564Z,1.15
2023-02-02T09:38:52.294Z,1.30
2023-02-02T09:42:29.103Z,1.10
2023-02-02T09:45:58.864Z,1.85
2023-02-02T09:49:03.625Z,1.35
2023-02-02T09:52:14.571Z,1.48
2023-02-02T09:58:53.340Z,2.20
2023-02-02T10:02:20.075Z,1.55
2023-02-02T10:05:29.406Z,1.30
2023-02-02T10:08:45.927Z,1.38
2023-02-02T10:11:55.152Z,1.60
2023-02-02T10:15:39.475Z,2.58
2023-02-02T10:18:48.999Z,0.85
2023-02-02T10:22:04.558Z,1.58
2023-02-02T10:25:12.064Z,1.30
2023-02-02T10:28:20.889Z,1.42
2023-02-02T10:31:39.082Z,1.27
2023-02-02T10:35:06.814Z,1.40
2023-02-02T10:38:41.639Z,1.45
2023-02-02T10:41:57.266Z,1.83
2023-02-02T10:45:02.919Z,1.58
2023-02-02T10:48:14.185Z,1.70
2023-02-02T10:51:34.377Z,1.20
2023-02-02T10:55:07.300Z,2.20
2023-02-02T10:58:12.130Z,1.55
2023-02-02T11:01:18.003Z,2.25
2023-02-02T11:04:40.949Z,1.95
2023-02-02T11:07:42.672Z,1.30
2023-02-02T11:10:45.697Z,1.45
2023-02-02T11:14:14.203Z,1.60
2023-02-02T11:17:26.331Z,1.38
2023-02-02T11:20:37.879Z,1.33
2023-02-02T11:23:40.675Z,2.30
2023-02-02T11:26:58.554Z,2.40
2023-02-02T11:30:25.564Z,1.52
2023-02-02T11:33:33.852Z,1.42
2023-02-02T11:36:35.613Z,1.52
2023-02-02T11:39:37.498Z,2.03
2023-02-02T11:42:46.960Z,1.58
2023-02-02T11:45:55.225Z,1.65
2023-02-02T11:49:01.377Z,2.03
2023-02-02T11:52:07.979Z,1.50
2023-02-02T11:55:17.091Z,1.55
2023-02-02T11:58:29.419Z,2.65
2023-02-02T12:01:44.607Z,1.80
2023-02-02T12:04:53.066Z,1.70
2023-02-02T12:07:54.776Z,1.60
2023-02-02T12:11:07.489Z,1.70
2023-02-02T12:14:39.944Z,2.25
2023-02-02T12:17:45.141Z,1.55
2023-02-02T12:21:07.248Z,1.40
2023-02-02T12:24:31.751Z,1.65
2023-02-02T12:27:53.386Z,1.70
2023-02-02T12:31:02.358Z,1.95
2023-02-02T12:34:04.597Z,1.65
2023-02-02T12:37:28.091Z,1.90
2023-02-02T12:40:46.509Z,2.05
2023-02-02T12:44:15.153Z,1.80
2023-02-02T12:47:31.120Z,2.20
2023-02-02T12:50:57.818Z,1.90
2023-02-02T12:54:33.066Z,2.38
2023-02-02T12:57:32.796Z,1.95
2023-02-02T13:00:44.621Z,2.38
2023-02-02T13:04:02.597Z,2.15
2023-02-02T13:07:32.750Z,2.30
2023-02-02T13:10:38.717Z,2.20
2023-02-02T13:13:40.962Z,2.15
2023-02-02T13:16:53.456Z,2.45
2023-02-02T13:19:59.805Z,2.08
2023-02-02T13:23:09.133Z,1.73
2023-02-02T13:26:27.942Z,1.77
2023-02-02T13:29:47.871Z,1.77
2023-02-02T13:32:53.339Z,2.53
2023-02-02T13:36:16.107Z,2.08
2023-02-02T13:39:36.650Z,2.13
2023-02-02T13:42:47.460Z,2.10
2023-02-02T13:49:17.469Z,1.90
2023-02-02T13:52:40.874Z,2.10
2023-02-02T13:56:22.193Z,1.63
2023-02-02T14:00:18.936Z,2.10
2023-02-02T14:03:38.921Z,1.98
2023-02-02T14:07:10.918Z,1.90
2023-02-02T14:10:31.657Z,1.90
2023-02-02T14:14:03.142Z,2.13
2023-02-02T14:17:17.319Z,1.98
2023-02-02T14:20:51.224Z,2.05
2023-02-02T14:23:54.106Z,2.10
2023-02-02T14:27:11.201Z,1.95
2023-02-02T14:30:22.708Z,2.40
2023-02-02T14:33:37.227Z,2.30
2023-02-02T14:36:39.863Z,1.85
2023-02-02T14:39:55.244Z,1.70
2023-02-02T14:43:23.943Z,1.80
2023-02-02T14:46:38.258Z,1.52
2023-02-02T14:49:40.083Z,1.70
2023-02-02T14:52:41.902Z,1.90
2023-02-02T14:56:08.992Z,1.92
2023-02-02T14:59:20.270Z,2.00
2023-02-02T15:02:33.410Z,1.88
2023-02-02T15:05:38.905Z,1.80
2023-02-02T15:08:40.816Z,1.80
2023-02-02T15:12:14.002Z,1.90
2023-02-02T15:15:20.971Z,2.10
2023-02-02T15:18:30.906Z,1.80
2023-02-02T15:21:37.612Z,1.73
2023-02-02T15:24:39.535Z,1.95
2023-02-02T15:27:56.596Z,1.80
2023-02-02T15:31:12.026Z,2.25
2023-02-02T15:34:40.787Z,2.30
2023-02-02T15:37:48.295Z,1.58
2023-02-02T15:40:50.385Z,2.03
2023-02-02T15:43:53.306Z,1.38
2023-02-02T15:46:57.945Z,2.60
2023-02-02T15:50:00.230Z,1.60
2023-02-02T15:53:02.110Z,2.28
2023-02-02T15:56:24.710Z,2.20
2023-02-02T15:59:29.905Z,1.70
2023-02-02T16:02:41.193Z,2.42
2023-02-02T16:05:50.073Z,1.92
2023-02-02T16:08:52.296Z,1.70
2023-02-02T16:11:54.476Z,1.92
2023-02-02T16:14:57.252Z,2.67
2023-02-02T16:18:01.421Z,1.80
2023-02-02T16:21:11.636Z,2.42
2023-02-02T16:24:40.325Z,1.90
2023-02-02T16:27:46.346Z,2.47
2023-02-02T16:30:49.152Z,1.83
2023-02-02T16:33:51.151Z,1.70
2023-02-02T16:37:15.944Z,2.47
2023-02-02T16:40:30.718Z,1.83
2023-02-02T16:43:33.690Z,1.98
2023-02-02T16:46:43.386Z,1.80
2023-02-02T16:49:45.329Z,2.00
2023-02-02T16:53:02.723Z,2.45
2023-02-02T16:56:06.777Z,1.58
2023-02-02T16:59:25.450Z,1.77
2023-02-02T17:02:35.745Z,1.85
2023-02-02T17:05:51.393Z,2.20
2023-02-02T17:08:53.322Z,1.83
2023-02-02T17:11:57.796Z,1.73
2023-02-02T17:15:05.834Z,1.67
2023-02-02T17:18:09.522Z,1.58
2023-02-02T17:21:19.773Z,2.00
2023-02-02T17:24:21.730Z,1.55
2023-02-02T17:27:33.826Z,1.73
2023-02-02T17:30:36.407Z,1.67
2023-02-02T17:33:38.830Z,2.17
2023-02-02T17:36:41.854Z,1.88
2023-02-02T17:39:43.997Z,1.60
2023-02-02T17:42:49.077Z,1.80
2023-02-02T17:45:51.146Z,1.60
2023-02-02T17:48:52.893Z,1.40
2023-02-02T17:51:54.968Z,1.70
2023-02-02T17:54:56.899Z,1.70
2023-02-02T17:57:58.840Z,1.48
2023-02-02T18:01:01.265Z,1.65
2023-02-02T18:04:04.300Z,1.70
2023-02-02T18:07:07.547Z,1.30
2023-02-02T18:10:11.815Z,1.10
2023-02-02T18:13:19.459Z,1.17
2023-02-02T18:16:21.486Z,1.33
2023-02-02T18:19:26.485Z,1.33
2023-02-02T18:22:34.436Z,1.67
2023-02-02T18:25:39.584Z,1.80
2023-02-02T18:28:41.676Z,2.22
2023-02-02T18:31:44.763Z,2.03
2023-02-02T18:34:51.321Z,2.60
2023-02-02T18:37:53.402Z,2.00
2023-02-02T18:40:56.554Z,2.08
2023-02-02T18:43:58.209Z,2.40
2023-02-02T18:47:00.968Z,2.42
2023-02-02T18:50:02.904Z,3.08
2023-02-02T18:53:06.555Z,2.75
2023-02-02T18:56:09.845Z,2.78
2023-02-02T18:59:11.765Z,2.80
2023-02-02T19:02:15.562Z,2.45
2023-02-02T19:05:35.714Z,2.33
2023-02-02T19:08:37.370Z,2.83
2023-02-02T19:11:47.931Z,3.22
2023-02-02T19:14:49.690Z,2.95
2023-02-02T19:17:53.669Z,2.58
2023-02-02T19:20:55.773Z,2.25
2023-02-02T19:23:57.520Z,2.53
2023-02-02T19:26:59.161Z,2.42
2023-02-02T19:30:05.956Z,2.63
2023-02-02T19:33:16.002Z,1.63
2023-02-02T19:36:27.898Z,1.60
2023-02-02T19:39:31.225Z,2.17
2023-02-02T19:42:34.167Z,2.05
2023-02-02T19:45:36.138Z,1.98
2023-02-02T19:48:39.133Z,2.53
2023-02-02T19:51:43.852Z,1.90
2023-02-02T19:54:48.920Z,2.13
2023-02-02T19:58:00.593Z,2.25
2023-02-02T20:01:15.445Z,1.80
2023-02-02T20:04:19.490Z,1.60
2023-02-02T20:07:22.918Z,2.22
2023-02-02T20:10:44.066Z,1.65
2023-02-02T20:16:53.787Z,1.45
2023-02-02T20:19:55.625Z,1.60
2023-02-02T20:22:57.812Z,1.52
2023-02-02T20:26:04.477Z,1.80
2023-02-02T20:29:27.171Z,2.13
2023-02-02T20:32:39.079Z,1.88
2023-02-02T20:35:42.738Z,2.10
2023-02-02T20:38:44.955Z,1.58
2023-02-02T20:41:46.606Z,2.08
2023-02-02T20:44:49.097Z,1.85
2023-02-02T20:47:50.987Z,2.42
2023-02-02T20:50:52.820Z,2.13
2023-02-02T20:53:55.778Z,1.80
2023-02-02T20:56:57.972Z,1.80
2023-02-02T21:00:00.020Z,1.75
2023-02-02T21:03:01.643Z,2.28
2023-02-02T21:06:03.666Z,2.42
2023-02-02T21:09:07.235Z,2.47
2023-02-02T21:12:09.098Z,2.10
2023-02-02T21:15:11.037Z,2.30
2023-02-02T21:18:12.948Z,2.00
2023-02-02T21:21:16.479Z,1.88
2023-02-02T21:24:18.234Z,2.15
2023-02-02T21:27:19.936Z,1.92
2023-02-02T21:30:21.844Z,1.73
2023-02-02T21:33:23.508Z,1.55
2023-02-02T21:36:39.225Z,1.50
2023-02-02T21:40:00.196Z,1.42
2023-02-02T21:46:19.766Z,1.10
2023-02-02T21:49:23.288Z,1.50
2023-02-02T21:52:32.454Z,1.42
2023-02-02T21:55:36.829Z,1.63
2023-02-02T21:58:38.692Z,2.03
2023-02-02T22:01:40.660Z,2.47
2023-02-02T22:04:42.414Z,2.40
2023-02-02T22:07:47.507Z,3.22
2023-02-02T22:10:49.482Z,3.90
2023-02-02T22:13:53.524Z,3.88
2023-02-02T22:16:58.431Z,3.80
2023-02-02T22:20:02.866Z,4.13
2023-02-02T22:23:04.570Z,4.40
2023-02-02T22:26:30.103Z,4.82
2023-02-02T22:29:35.250Z,5.13
2023-02-02T22:32:37.041Z,5.07
2023-02-02T22:35:40.796Z,5.20
2023-02-02T22:38:42.426Z,5.18
2023-02-02T22:41:45.101Z,5.35
2023-02-02T22:44:46.762Z,5.13
2023-02-02T22:47:49.054Z,5.32
2023-02-02T22:50:51.555Z,6.05
2023-02-02T22:53:53.205Z,5.80
2023-02-02T22:56:54.723Z,6.20
2023-02-02T22:59:56.449Z,6.53
2023-02-02T23:02:58.154Z,6.70
2023-02-02T23:05:59.901Z,5.43
2023-02-02T23:09:02.838Z,5.78
2023-02-02T23:12:04.882Z,6.10
2023-02-02T23:15:07.571Z,6.43
2023-02-02T23:18:09.226Z,6.97
2023-02-02T23:21:11.080Z,7.60
2023-02-02T23:24:13.391Z,6.32
2023-02-02T23:27:15.206Z,7.72
2023-02-02T23:30:17.589Z,7.43
2023-02-02T23:33:19.428Z,7.75
2023-02-02T23:36:21.141Z,8.30
2023-02-02T23:39:23.078Z,8.52
2023-02-02T23:42:25.780Z,8.75
2023-02-02T23:45:29.033Z,9.48
2023-02-02T23:48:30.801Z,8.35
2023-02-02T23:51:32.673Z,10.40
2023-02-02T23:54:35.025Z,10.82
2023-02-02T23:57:37.563Z,11.40
